Couvin, Belgium
Current Conditions -  °F | °C
As of 12:55 AM on Monday 24 Nov 2014 (Local Time) from EBFS Reporting Station
Drizzle Drizzle  
Wind Chill: 50°   Ceiling: 100
Heat Index: 50°   Visibility: 0.37mi
Dew Point: 50°   Wind: 10mph
Humidity: 100%   Direction: 280°W
Pressure: 30.06"   Gusts: NA
Location:  50.05°N, 4.49°E
Report Text: EBFS 232355Z 28009KT 0600 -DZ FG BKN001 10/10 Q1018 RED
Loading
Personal Weather Stations






























Interactive Weather Map New forecast layout! Learn more

10-Day Weather Forecast

Advertisements
Track Severe Weather on mobile